sensor_id;sensor_type;location;lat;lon;timestamp;pressure;altitude;pressure_sealevel;temperature;humidity
47897;BME280;39629;51.400;5.494;2023-03-14T00:03:03;98840.78;;;10.88;100.00
47897;BME280;39629;51.400;5.494;2023-03-14T00:08:06;98831.63;;;10.73;100.00
47897;BME280;39629;51.400;5.494;2023-03-14T00:13:08;98837.22;;;10.64;100.00
47897;BME280;39629;51.400;5.494;2023-03-14T00:18:09;98840.13;;;10.56;100.00
47897;BME280;39629;51.400;5.494;2023-03-14T00:23:12;98854.19;;;10.55;100.00
47897;BME280;39629;51.400;5.494;2023-03-14T00:28:14;98858.38;;;10.61;100.00
47897;BME280;39629;51.400;5.494;2023-03-14T00:33:15;98866.84;;;10.44;100.00
47897;BME280;39629;51.400;5.494;2023-03-14T00:38:18;98860.38;;;10.28;100.00
47897;BME280;39629;51.400;5.494;2023-03-14T00:43:21;98861.19;;;10.30;100.00
47897;BME280;39629;51.400;5.494;2023-03-14T00:48:23;98874.53;;;10.23;100.00
47897;BME280;39629;51.400;5.494;2023-03-14T00:53:26;98864.53;;;10.08;100.00
47897;BME280;39629;51.400;5.494;2023-03-14T00:58:28;98873.97;;;10.14;100.00
47897;BME280;39629;51.400;5.494;2023-03-14T01:03:29;98877.97;;;9.99;100.00
47897;BME280;39629;51.400;5.494;2023-03-14T01:08:32;98885.28;;;9.89;100.00
47897;BME280;39629;51.400;5.494;2023-03-14T01:13:35;98883.44;;;9.91;100.00
47897;BME280;39629;51.400;5.494;2023-03-14T01:18:38;98875.34;;;9.99;100.00
47897;BME280;39629;51.400;5.494;2023-03-14T01:23:42;98870.31;;;9.91;100.00
47897;BME280;39629;51.400;5.494;2023-03-14T01:28:45;98849.38;;;10.16;100.00
47897;BME280;39629;51.400;5.494;2023-03-14T01:33:47;98832.34;;;10.01;100.00
47897;BME280;39629;51.400;5.494;2023-03-14T01:38:50;98838.38;;;10.05;100.00
47897;BME280;39629;51.400;5.494;2023-03-14T01:43:53;98827.69;;;10.10;100.00
47897;BME280;39629;51.400;5.494;2023-03-14T01:48:59;98818.06;;;10.09;100.00
47897;BME280;39629;51.400;5.494;2023-03-14T01:54:10;98813.09;;;10.01;100.00
47897;BME280;39629;51.400;5.494;2023-03-14T01:59:14;98817.34;;;10.05;100.00
47897;BME280;39629;51.400;5.494;2023-03-14T02:04:17;98820.97;;;10.01;100.00
47897;BME280;39629;51.400;5.494;2023-03-14T02:09:22;98813.88;;;10.03;100.00
47897;BME280;39629;51.400;5.494;2023-03-14T02:14:30;98803.59;;;9.97;100.00
47897;BME280;39629;51.400;5.494;2023-03-14T02:19:57;98809.81;;;9.94;100.00
47897;BME280;39629;51.400;5.494;2023-03-14T02:25:17;98803.06;;;9.85;100.00
47897;BME280;39629;51.400;5.494;2023-03-14T02:30:24;98796.00;;;9.87;100.00
47897;BME280;39629;51.400;5.494;2023-03-14T02:35:29;98802.22;;;9.85;100.00
47897;BME280;39629;51.400;5.494;2023-03-14T02:40:33;98804.00;;;9.84;100.00
47897;BME280;39629;51.400;5.494;2023-03-14T02:45:42;98785.00;;;9.76;100.00
47897;BME280;39629;51.400;5.494;2023-03-14T02:50:48;98780.94;;;9.66;100.00
47897;BME280;39629;51.400;5.494;2023-03-14T02:55:52;98784.28;;;9.71;100.00
47897;BME280;39629;51.400;5.494;2023-03-14T03:00:57;98785.09;;;9.73;100.00
47897;BME280;39629;51.400;5.494;2023-03-14T03:05:59;98788.63;;;9.72;100.00
47897;BME280;39629;51.400;5.494;2023-03-14T03:11:02;98793.88;;;9.72;100.00
47897;BME280;39629;51.400;5.494;2023-03-14T03:16:08;98797.47;;;9.69;100.00
47897;BME280;39629;51.400;5.494;2023-03-14T03:21:10;98796.56;;;9.70;100.00
47897;BME280;39629;51.400;5.494;2023-03-14T03:26:11;98778.22;;;9.69;100.00
47897;BME280;39629;51.400;5.494;2023-03-14T03:31:14;98785.38;;;9.64;100.00
47897;BME280;39629;51.400;5.494;2023-03-14T03:36:20;98788.91;;;9.63;100.00
47897;BME280;39629;51.400;5.494;2023-03-14T03:41:23;98776.94;;;9.54;100.00
47897;BME280;39629;51.400;5.494;2023-03-14T03:46:26;98775.28;;;9.51;100.00
47897;BME280;39629;51.400;5.494;2023-03-14T03:51:28;98765.31;;;9.34;100.00
47897;BME280;39629;51.400;5.494;2023-03-14T03:56:30;98769.44;;;9.13;100.00
47897;BME280;39629;51.400;5.494;2023-03-14T04:01:33;98761.56;;;9.13;100.00
47897;BME280;39629;51.400;5.494;2023-03-14T04:06:36;98771.25;;;9.11;100.00
47897;BME280;39629;51.400;5.494;2023-03-14T04:11:38;98769.44;;;9.13;100.00
47897;BME280;39629;51.400;5.494;2023-03-14T04:17:04;98775.78;;;9.06;100.00
47897;BME280;39629;51.400;5.494;2023-03-14T04:22:06;98773.56;;;8.91;100.00
47897;BME280;39629;51.400;5.494;2023-03-14T04:27:16;98780.13;;;8.76;100.00
47897;BME280;39629;51.400;5.494;2023-03-14T04:32:21;98751.50;;;8.68;100.00
47897;BME280;39629;51.400;5.494;2023-03-14T04:37:23;98756.84;;;8.65;100.00
47897;BME280;39629;51.400;5.494;2023-03-14T04:42:25;98748.16;;;8.63;100.00
47897;BME280;39629;51.400;5.494;2023-03-14T04:47:28;98750.22;;;8.51;100.00
47897;BME280;39629;51.400;5.494;2023-03-14T04:52:30;98758.88;;;8.55;100.00
47897;BME280;39629;51.400;5.494;2023-03-14T04:57:36;98758.09;;;8.51;100.00
47897;BME280;39629;51.400;5.494;2023-03-14T05:02:44;98749.28;;;8.54;100.00
47897;BME280;39629;51.400;5.494;2023-03-14T05:08:05;98750.06;;;8.56;100.00
47897;BME280;39629;51.400;5.494;2023-03-14T05:13:15;98744.72;;;8.61;100.00
47897;BME280;39629;51.400;5.494;2023-03-14T05:18:26;98737.41;;;8.72;100.00
47897;BME280;39629;51.400;5.494;2023-03-14T05:23:44;98734.72;;;8.74;100.00
47897;BME280;39629;51.400;5.494;2023-03-14T05:29:06;98733.78;;;8.76;100.00
47897;BME280;39629;51.400;5.494;2023-03-14T05:34:37;98731.13;;;8.78;100.00
47897;BME280;39629;51.400;5.494;2023-03-14T05:40:06;98726.97;;;8.71;100.00
47897;BME280;39629;51.400;5.494;2023-03-14T05:45:19;98728.81;;;8.67;100.00
47897;BME280;39629;51.400;5.494;2023-03-14T05:50:34;98722.63;;;8.69;100.00
47897;BME280;39629;51.400;5.494;2023-03-14T05:56:06;98719.91;;;8.73;100.00
47897;BME280;39629;51.400;5.494;2023-03-14T06:01:26;98716.44;;;8.72;100.00
47897;BME280;39629;51.400;5.494;2023-03-14T06:06:41;98718.16;;;8.73;100.00
47897;BME280;39629;51.400;5.494;2023-03-14T06:11:44;98718.06;;;8.76;100.00
47897;BME280;39629;51.400;5.494;2023-03-14T06:16:47;98720.53;;;8.81;100.00
47897;BME280;39629;51.400;5.494;2023-03-14T06:21:52;98715.13;;;8.87;100.00
47897;BME280;39629;51.400;5.494;2023-03-14T06:26:54;98714.91;;;8.93;100.00
47897;BME280;39629;51.400;5.494;2023-03-14T06:31:56;98719.25;;;8.96;100.00
47897;BME280;39629;51.400;5.494;2023-03-14T06:36:59;98724.50;;;8.94;100.00
47897;BME280;39629;51.400;5.494;2023-03-14T06:42:01;98723.59;;;8.97;100.00
47897;BME280;39629;51.400;5.494;2023-03-14T06:47:04;98722.41;;;9.07;100.00
47897;BME280;39629;51.400;5.494;2023-03-14T06:52:08;98731.50;;;9.24;100.00
47897;BME280;39629;51.400;5.494;2023-03-14T06:57:10;98738.84;;;9.41;100.00
47897;BME280;39629;51.400;5.494;2023-03-14T07:02:11;98752.22;;;9.33;100.00
47897;BME280;39629;51.400;5.494;2023-03-14T07:07:16;98745.09;;;9.36;100.00
47897;BME280;39629;51.400;5.494;2023-03-14T07:12:18;98758.84;;;9.45;100.00
47897;BME280;39629;51.400;5.494;2023-03-14T07:17:19;98765.00;;;9.44;100.00
47897;BME280;39629;51.400;5.494;2023-03-14T07:22:23;98769.25;;;9.48;100.00
47897;BME280;39629;51.400;5.494;2023-03-14T07:27:24;98767.56;;;9.47;100.00
47897;BME280;39629;51.400;5.494;2023-03-14T07:32:26;98785.22;;;9.42;100.00
47897;BME280;39629;51.400;5.494;2023-03-14T07:37:29;98794.25;;;9.33;100.00
47897;BME280;39629;51.400;5.494;2023-03-14T07:42:32;98840.06;;;9.21;100.00
47897;BME280;39629;51.400;5.494;2023-03-14T07:47:49;98906.94;;;8.40;100.00
47897;BME280;39629;51.400;5.494;2023-03-14T07:52:52;98923.19;;;7.79;100.00
47897;BME280;39629;51.400;5.494;2023-03-14T07:57:53;98942.81;;;7.60;100.00
47897;BME280;39629;51.400;5.494;2023-03-14T08:02:55;98967.72;;;7.37;100.00
47897;BME280;39629;51.400;5.494;2023-03-14T08:07:58;98982.78;;;7.24;100.00
47897;BME280;39629;51.400;5.494;2023-03-14T08:13:00;98998.69;;;7.13;100.00
47897;BME280;39629;51.400;5.494;2023-03-14T08:18:02;99013.38;;;7.22;100.00
47897;BME280;39629;51.400;5.494;2023-03-14T08:23:05;99032.44;;;7.29;100.00
47897;BME280;39629;51.400;5.494;2023-03-14T08:28:06;99049.69;;;7.38;100.00
47897;BME280;39629;51.400;5.494;2023-03-14T08:33:08;99066.97;;;7.46;100.00
47897;BME280;39629;51.400;5.494;2023-03-14T08:38:11;99094.81;;;7.50;100.00
47897;BME280;39629;51.400;5.494;2023-03-14T08:43:12;99110.88;;;7.32;100.00
47897;BME280;39629;51.400;5.494;2023-03-14T08:48:14;99128.47;;;7.22;100.00
47897;BME280;39629;51.400;5.494;2023-03-14T08:53:17;99152.00;;;7.24;100.00
47897;BME280;39629;51.400;5.494;2023-03-14T08:58:18;99158.16;;;7.20;100.00
47897;BME280;39629;51.400;5.494;2023-03-14T09:03:20;99173.03;;;7.16;100.00
47897;BME280;39629;51.400;5.494;2023-03-14T09:08:24;99188.13;;;7.00;100.00
47897;BME280;39629;51.400;5.494;2023-03-14T09:13:26;99216.81;;;7.05;100.00
47897;BME280;39629;51.400;5.494;2023-03-14T09:18:27;99230.88;;;6.97;100.00
47897;BME280;39629;51.400;5.494;2023-03-14T09:23:30;99247.38;;;7.03;100.00
47897;BME280;39629;51.400;5.494;2023-03-14T09:28:32;99264.59;;;7.19;100.00
47897;BME280;39629;51.400;5.494;2023-03-14T09:33:33;99268.44;;;7.53;100.00
47897;BME280;39629;51.400;5.494;2023-03-14T09:38:36;99295.88;;;7.81;100.00
47897;BME280;39629;51.400;5.494;2023-03-14T09:43:39;99307.47;;;7.68;100.00
47897;BME280;39629;51.400;5.494;2023-03-14T09:48:42;99324.72;;;7.22;100.00
47897;BME280;39629;51.400;5.494;2023-03-14T09:53:47;99358.56;;;7.35;100.00
47897;BME280;39629;51.400;5.494;2023-03-14T09:58:51;99405.22;;;6.98;100.00
47897;BME280;39629;51.400;5.494;2023-03-14T10:03:58;99430.84;;;6.64;100.00
47897;BME280;39629;51.400;5.494;2023-03-14T10:09:02;99461.66;;;6.23;100.00
47897;BME280;39629;51.400;5.494;2023-03-14T10:14:07;99483.41;;;6.24;100.00
47897;BME280;39629;51.400;5.494;2023-03-14T10:19:11;99513.91;;;6.25;100.00
47897;BME280;39629;51.400;5.494;2023-03-14T10:24:26;99530.25;;;6.55;100.00
47897;BME280;39629;51.400;5.494;2023-03-14T10:29:29;99548.25;;;6.92;100.00
47897;BME280;39629;51.400;5.494;2023-03-14T10:34:34;99571.72;;;6.99;100.00
47897;BME280;39629;51.400;5.494;2023-03-14T10:39:46;99586.75;;;6.74;100.00
47897;BME280;39629;51.400;5.494;2023-03-14T10:44:53;99610.06;;;7.05;100.00
47897;BME280;39629;51.400;5.494;2023-03-14T10:49:56;99638.84;;;7.05;100.00
47897;BME280;39629;51.400;5.494;2023-03-14T10:55:01;99651.09;;;6.98;100.00
47897;BME280;39629;51.400;5.494;2023-03-14T11:00:05;99676.34;;;6.98;100.00
47897;BME280;39629;51.400;5.494;2023-03-14T11:05:19;99687.03;;;6.64;100.00
47897;BME280;39629;51.400;5.494;2023-03-14T11:10:31;99706.94;;;6.93;100.00
47897;BME280;39629;51.400;5.494;2023-03-14T11:15:35;99747.28;;;6.21;100.00
47897;BME280;39629;51.400;5.494;2023-03-14T11:20:43;99750.69;;;6.46;100.00
47897;BME280;39629;51.400;5.494;2023-03-14T11:25:53;99777.66;;;6.62;100.00
47897;BME280;39629;51.400;5.494;2023-03-14T11:31:04;99785.59;;;6.29;100.00
47897;BME280;39629;51.400;5.494;2023-03-14T11:36:12;99796.78;;;6.79;100.00
47897;BME280;39629;51.400;5.494;2023-03-14T11:41:21;99807.13;;;7.04;100.00
47897;BME280;39629;51.400;5.494;2023-03-14T11:46:26;99822.06;;;6.73;100.00
47897;BME280;39629;51.400;5.494;2023-03-14T11:51:33;99852.66;;;6.47;100.00
47897;BME280;39629;51.400;5.494;2023-03-14T11:56:41;99889.22;;;5.76;100.00
47897;BME280;39629;51.400;5.494;2023-03-14T12:01:52;99918.34;;;4.67;100.00
47897;BME280;39629;51.400;5.494;2023-03-14T12:06:55;99898.59;;;5.09;100.00
47897;BME280;39629;51.400;5.494;2023-03-14T12:12:01;99909.09;;;5.33;100.00
47897;BME280;39629;51.400;5.494;2023-03-14T12:17:05;99922.28;;;5.77;100.00
47897;BME280;39629;51.400;5.494;2023-03-14T12:22:26;99939.75;;;6.16;100.00
47897;BME280;39629;51.400;5.494;2023-03-14T12:27:42;99951.06;;;6.47;100.00
47897;BME280;39629;51.400;5.494;2023-03-14T12:33:11;99959.78;;;6.41;100.00
47897;BME280;39629;51.400;5.494;2023-03-14T12:38:15;99964.13;;;6.84;100.00
47897;BME280;39629;51.400;5.494;2023-03-14T12:43:28;99961.47;;;6.98;100.00
47897;BME280;39629;51.400;5.494;2023-03-14T12:48:30;99978.06;;;7.00;100.00
47897;BME280;39629;51.400;5.494;2023-03-14T12:53:53;99975.22;;;7.66;100.00
47897;BME280;39629;51.400;5.494;2023-03-14T12:59:10;99997.19;;;7.21;100.00
47897;BME280;39629;51.400;5.494;2023-03-14T13:04:15;99997.09;;;7.48;100.00
47897;BME280;39629;51.400;5.494;2023-03-14T13:14:59;100015.25;;;7.89;100.00
47897;BME280;39629;51.400;5.494;2023-03-14T13:20:11;100029.94;;;8.14;100.00
47897;BME280;39629;51.400;5.494;2023-03-14T13:25:14;100024.69;;;8.19;100.00
47897;BME280;39629;51.400;5.494;2023-03-14T13:30:21;100034.25;;;8.26;100.00
47897;BME280;39629;51.400;5.494;2023-03-14T13:35:26;100031.38;;;8.62;100.00
47897;BME280;39629;51.400;5.494;2023-03-14T13:40:30;100061.19;;;8.45;100.00
47897;BME280;39629;51.400;5.494;2023-03-14T13:45:43;100060.09;;;8.82;100.00
47897;BME280;39629;51.400;5.494;2023-03-14T13:50:49;100076.78;;;8.68;100.00
47897;BME280;39629;51.400;5.494;2023-03-14T13:55:52;100087.94;;;9.00;100.00
47897;BME280;39629;51.400;5.494;2023-03-14T14:01:10;100109.84;;;8.96;100.00
47897;BME280;39629;51.400;5.494;2023-03-14T14:06:23;100122.28;;;8.64;97.17
47897;BME280;39629;51.400;5.494;2023-03-14T14:11:36;100158.06;;;8.72;97.02
47897;BME280;39629;51.400;5.494;2023-03-14T14:16:41;100167.69;;;8.74;86.15
47897;BME280;39629;51.400;5.494;2023-03-14T14:21:45;100190.28;;;8.94;94.82
47897;BME280;39629;51.400;5.494;2023-03-14T14:26:50;100206.22;;;8.63;92.45
47897;BME280;39629;51.400;5.494;2023-03-14T14:32:01;100222.19;;;8.03;89.98
47897;BME280;39629;51.400;5.494;2023-03-14T14:37:03;100231.75;;;8.16;90.54
47897;BME280;39629;51.400;5.494;2023-03-14T14:42:12;100249.28;;;7.97;91.63
47897;BME280;39629;51.400;5.494;2023-03-14T14:47:18;100268.44;;;8.14;89.11
47897;BME280;39629;51.400;5.494;2023-03-14T14:52:22;100291.19;;;7.91;90.86
47897;BME280;39629;51.400;5.494;2023-03-14T14:57:33;100313.00;;;7.39;83.79
47897;BME280;39629;51.400;5.494;2023-03-14T15:02:40;100321.72;;;7.39;81.86
47897;BME280;39629;51.400;5.494;2023-03-14T15:07:46;100333.97;;;7.53;87.21
47897;BME280;39629;51.400;5.494;2023-03-14T15:12:48;100345.25;;;7.22;83.57
47897;BME280;39629;51.400;5.494;2023-03-14T15:17:51;100353.06;;;7.14;84.80
47897;BME280;39629;51.400;5.494;2023-03-14T15:22:52;100379.22;;;7.08;85.53
47897;BME280;39629;51.400;5.494;2023-03-14T15:27:54;100382.66;;;6.98;85.76
47897;BME280;39629;51.400;5.494;2023-03-14T15:32:57;100396.53;;;6.81;85.94
47897;BME280;39629;51.400;5.494;2023-03-14T15:37:58;100433.88;;;6.62;85.89
47897;BME280;39629;51.400;5.494;2023-03-14T15:43:00;100426.19;;;6.80;89.51
47897;BME280;39629;51.400;5.494;2023-03-14T15:48:04;100425.25;;;6.72;87.83
47897;BME280;39629;51.400;5.494;2023-03-14T15:53:06;100440.88;;;6.63;90.46
47897;BME280;39629;51.400;5.494;2023-03-14T15:58:11;100466.06;;;6.50;88.25
47897;BME280;39629;51.400;5.494;2023-03-14T16:03:17;100480.75;;;6.37;86.63
47897;BME280;39629;51.400;5.494;2023-03-14T16:08:19;100483.13;;;6.11;86.59
47897;BME280;39629;51.400;5.494;2023-03-14T16:13:20;100488.34;;;6.09;88.91
47897;BME280;39629;51.400;5.494;2023-03-14T16:18:24;100506.41;;;5.92;92.27
47897;BME280;39629;51.400;5.494;2023-03-14T16:23:27;100518.63;;;5.93;91.33
47897;BME280;39629;51.400;5.494;2023-03-14T16:28:28;100529.03;;;5.87;88.80
47897;BME280;39629;51.400;5.494;2023-03-14T16:33:32;100544.56;;;5.78;91.27
47897;BME280;39629;51.400;5.494;2023-03-14T16:38:35;100553.13;;;5.68;86.87
47897;BME280;39629;51.400;5.494;2023-03-14T16:43:37;100560.13;;;5.69;89.14
47897;BME280;39629;51.400;5.494;2023-03-14T16:48:40;100573.84;;;5.54;88.70
47897;BME280;39629;51.400;5.494;2023-03-14T16:53:41;100578.19;;;5.52;85.85
47897;BME280;39629;51.400;5.494;2023-03-14T16:58:43;100588.50;;;5.45;87.56
47897;BME280;39629;51.400;5.494;2023-03-14T17:03:47;100603.22;;;5.39;86.31
47897;BME280;39629;51.400;5.494;2023-03-14T17:08:49;100616.13;;;5.30;90.64
47897;BME280;39629;51.400;5.494;2023-03-14T17:13:51;100619.59;;;5.28;90.35
47897;BME280;39629;51.400;5.494;2023-03-14T17:18:54;100630.78;;;5.20;89.75
47897;BME280;39629;51.400;5.494;2023-03-14T17:23:55;100638.56;;;5.17;89.31
47897;BME280;39629;51.400;5.494;2023-03-14T17:28:57;100643.59;;;5.06;93.62
47897;BME280;39629;51.400;5.494;2023-03-14T17:34:00;100667.03;;;5.04;91.63
47897;BME280;39629;51.400;5.494;2023-03-14T17:39:02;100682.53;;;4.95;93.76
47897;BME280;39629;51.400;5.494;2023-03-14T17:44:03;100691.19;;;4.94;92.25
47897;BME280;39629;51.400;5.494;2023-03-14T17:49:07;100710.06;;;4.79;96.27
47897;BME280;39629;51.400;5.494;2023-03-14T17:54:08;100725.75;;;4.82;95.67
47897;BME280;39629;51.400;5.494;2023-03-14T17:59:10;100729.78;;;4.66;98.54
47897;BME280;39629;51.400;5.494;2023-03-14T18:04:13;100739.28;;;4.63;100.00
47897;BME280;39629;51.400;5.494;2023-03-14T18:09:16;100749.31;;;4.44;100.00
47897;BME280;39629;51.400;5.494;2023-03-14T18:14:18;100755.22;;;4.35;100.00
47897;BME280;39629;51.400;5.494;2023-03-14T18:19:20;100772.22;;;4.18;100.00
47897;BME280;39629;51.400;5.494;2023-03-14T18:24:22;100772.97;;;4.12;100.00
47897;BME280;39629;51.400;5.494;2023-03-14T18:29:24;100781.09;;;3.88;100.00
47897;BME280;39629;51.400;5.494;2023-03-14T18:34:27;100800.28;;;3.91;100.00
47897;BME280;39629;51.400;5.494;2023-03-14T18:39:29;100802.09;;;3.59;100.00
47897;BME280;39629;51.400;5.494;2023-03-14T18:44:30;100811.34;;;3.48;100.00
47897;BME280;39629;51.400;5.494;2023-03-14T18:49:33;100819.44;;;3.25;100.00
47897;BME280;39629;51.400;5.494;2023-03-14T18:54:35;100828.63;;;3.12;100.00
47897;BME280;39629;51.400;5.494;2023-03-14T18:59:36;100845.31;;;2.88;100.00
47897;BME280;39629;51.400;5.494;2023-03-14T19:04:39;100845.31;;;2.88;100.00
47897;BME280;39629;51.400;5.494;2023-03-14T19:09:41;100857.94;;;2.76;100.00
47897;BME280;39629;51.400;5.494;2023-03-14T19:14:42;100862.34;;;2.50;100.00
47897;BME280;39629;51.400;5.494;2023-03-14T19:19:45;100861.44;;;2.48;100.00
47897;BME280;39629;51.400;5.494;2023-03-14T19:24:47;100869.47;;;2.27;100.00
47897;BME280;39629;51.400;5.494;2023-03-14T19:29:48;100870.88;;;2.17;100.00
47897;BME280;39629;51.400;5.494;2023-03-14T19:34:52;100887.72;;;2.02;100.00
47897;BME280;39629;51.400;5.494;2023-03-14T19:39:54;100881.09;;;1.85;100.00
47897;BME280;39629;51.400;5.494;2023-03-14T19:44:55;100898.03;;;1.74;100.00
47897;BME280;39629;51.400;5.494;2023-03-14T19:49:59;100903.72;;;1.63;100.00
47897;BME280;39629;51.400;5.494;2023-03-14T19:55:01;100918.75;;;1.48;100.00
47897;BME280;39629;51.400;5.494;2023-03-14T20:00:03;100915.47;;;1.28;100.00
47897;BME280;39629;51.400;5.494;2023-03-14T20:05:14;100917.41;;;1.11;100.00
47897;BME280;39629;51.400;5.494;2023-03-14T20:10:17;100920.41;;;0.97;100.00
47897;BME280;39629;51.400;5.494;2023-03-14T20:15:22;100925.00;;;0.82;100.00
47897;BME280;39629;51.400;5.494;2023-03-14T20:20:25;100924.00;;;0.78;100.00
47897;BME280;39629;51.400;5.494;2023-03-14T20:25:27;100926.41;;;0.74;100.00
47897;BME280;39629;51.400;5.494;2023-03-14T20:30:29;100934.69;;;0.65;100.00
47897;BME280;39629;51.400;5.494;2023-03-14T20:35:32;100939.13;;;0.68;100.00
47897;BME280;39629;51.400;5.494;2023-03-14T20:40:33;100949.09;;;0.58;100.00
47897;BME280;39629;51.400;5.494;2023-03-14T20:45:35;100955.41;;;0.65;100.00
47897;BME280;39629;51.400;5.494;2023-03-14T20:50:38;100954.97;;;0.54;100.00
47897;BME280;39629;51.400;5.494;2023-03-14T20:55:39;100973.31;;;0.59;100.00
47897;BME280;39629;51.400;5.494;2023-03-14T21:00:45;100964.56;;;0.78;100.00
47897;BME280;39629;51.400;5.494;2023-03-14T21:05:49;100969.75;;;0.78;100.00
47897;BME280;39629;51.400;5.494;2023-03-14T21:10:53;100973.81;;;0.71;100.00
47897;BME280;39629;51.400;5.494;2023-03-14T21:15:54;100973.97;;;0.98;100.00
47897;BME280;39629;51.400;5.494;2023-03-14T21:21:00;100972.03;;;1.15;100.00
47897;BME280;39629;51.400;5.494;2023-03-14T21:26:02;100972.50;;;1.05;100.00
47897;BME280;39629;51.400;5.494;2023-03-14T21:31:04;100968.97;;;1.03;100.00
47897;BME280;39629;51.400;5.494;2023-03-14T21:36:08;100976.22;;;1.12;100.00
47897;BME280;39629;51.400;5.494;2023-03-14T21:41:10;100974.78;;;1.20;100.00
47897;BME280;39629;51.400;5.494;2023-03-14T21:46:13;100984.22;;;1.18;100.00
47897;BME280;39629;51.400;5.494;2023-03-14T21:51:16;100983.03;;;1.32;100.00
47897;BME280;39629;51.400;5.494;2023-03-14T21:56:18;100987.00;;;1.47;100.00
47897;BME280;39629;51.400;5.494;2023-03-14T22:01:20;100986.84;;;1.42;100.00
47897;BME280;39629;51.400;5.494;2023-03-14T22:06:24;100998.22;;;1.46;100.00
47897;BME280;39629;51.400;5.494;2023-03-14T22:11:26;100979.88;;;1.41;100.00
47897;BME280;39629;51.400;5.494;2023-03-14T22:16:27;100976.88;;;1.79;100.00
47897;BME280;39629;51.400;5.494;2023-03-14T22:21:30;100991.72;;;1.57;100.00
47897;BME280;39629;51.400;5.494;2023-03-14T22:26:32;101000.47;;;1.85;100.00
47897;BME280;39629;51.400;5.494;2023-03-14T22:31:33;101014.38;;;1.87;100.00
47897;BME280;39629;51.400;5.494;2023-03-14T22:36:36;101005.94;;;2.18;100.00
47897;BME280;39629;51.400;5.494;2023-03-14T22:41:38;101032.69;;;2.16;100.00
47897;BME280;39629;51.400;5.494;2023-03-14T22:46:40;101025.41;;;2.31;100.00
47897;BME280;39629;51.400;5.494;2023-03-14T22:51:43;101033.22;;;2.31;100.00
47897;BME280;39629;51.400;5.494;2023-03-14T22:56:44;101051.91;;;2.47;100.00
47897;BME280;39629;51.400;5.494;2023-03-14T23:01:46;101053.56;;;2.45;100.00
47897;BME280;39629;51.400;5.494;2023-03-14T23:06:49;101058.69;;;2.42;100.00
47897;BME280;39629;51.400;5.494;2023-03-14T23:11:50;101059.59;;;2.44;100.00
47897;BME280;39629;51.400;5.494;2023-03-14T23:16:52;101075.13;;;2.42;100.00
47897;BME280;39629;51.400;5.494;2023-03-14T23:21:56;101065.63;;;2.43;100.00
47897;BME280;39629;51.400;5.494;2023-03-14T23:26:57;101067.06;;;2.34;100.00
47897;BME280;39629;51.400;5.494;2023-03-14T23:31:59;101072.06;;;2.28;100.00
47897;BME280;39629;51.400;5.494;2023-03-14T23:37:02;101072.88;;;2.27;100.00
47897;BME280;39629;51.400;5.494;2023-03-14T23:42:04;101078.06;;;2.27;100.00
47897;BME280;39629;51.400;5.494;2023-03-14T23:47:07;101091.16;;;2.30;100.00
47897;BME280;39629;51.400;5.494;2023-03-14T23:52:10;101092.97;;;2.33;100.00
47897;BME280;39629;51.400;5.494;2023-03-14T23:57:12;101081.78;;;2.34;100.00
